Time;durP1;ratioP1;P1;durP2;ratioP2;P2;SDS_P1;SDS_P2;PMS_P1;PMS_P2;Temp;Humidity;BMP_temperature;BMP_pressure;BME280_temperature;BME280_humidity;BME280_pressure;Samples;Min_cycle;Max_cycle;Signal;HPM_P1;HPM_P2
2022/12/14 00:00:40;;;;;;;;;37.50;31.75;;;;;3.22;60.48;99486.56;5103908;27;45531;-84
2022/12/14 00:03:06;;;;;;;;;34.50;31.75;;;;;3.29;60.27;99517.13;5100438;27;45305;-84
2022/12/14 00:05:32;;;;;;;;;39.25;29.00;;;;;3.22;60.58;99502.13;5105404;27;45055;-84
2022/12/14 00:07:57;;;;;;;;;35.25;29.25;;;;;3.44;60.80;99529.91;5089801;27;46336;-84
2022/12/14 00:10:23;;;;;;;;;32.75;26.50;;;;;3.27;60.99;99498.03;5100508;27;45535;-84
2022/12/14 00:12:48;;;;;;;;;31.67;26.33;;;;;3.22;60.98;99481.34;5101192;27;45087;-83
2022/12/14 00:15:13;;;;;;;;;31.67;29.00;;;;;3.30;60.91;99479.97;5102299;27;45389;-84
2022/12/14 00:17:38;;;;;;;;;35.00;30.25;;;;;3.33;60.63;99503.47;5112090;27;45574;-84
2022/12/14 00:20:04;;;;;;;;;35.67;31.67;;;;;3.49;60.57;99510.19;5110918;27;54118;-83
2022/12/14 00:22:30;;;;;;;;;28.50;27.75;;;;;3.38;60.49;99491.56;5123532;27;45058;-83
2022/12/14 00:24:55;;;;;;;;;36.00;32.33;;;;;3.40;60.63;99500.34;5120965;27;45616;-84
2022/12/14 00:27:20;;;;;;;;;29.33;22.33;;;;;3.18;60.43;99438.78;5113495;27;45956;-84
2022/12/14 00:29:46;;;;;;;;;40.00;32.33;;;;;3.26;60.91;99465.09;5094356;27;45867;-84
2022/12/14 00:32:11;;;;;;;;;31.00;25.67;;;;;3.12;60.76;99433.34;5094861;27;45599;-84
2022/12/14 00:34:36;;;;;;;;;32.67;27.00;;;;;3.38;60.31;99477.69;5087548;27;45449;-83
2022/12/14 00:37:01;;;;;;;;;29.00;26.00;;;;;3.36;60.16;99462.94;5099539;27;46889;-84
2022/12/14 00:39:27;;;;;;;;;30.33;26.33;;;;;3.28;60.21;99443.56;5112194;27;45327;-83
2022/12/14 00:41:52;;;;;;;;;30.00;25.67;;;;;3.44;60.50;99458.06;5124573;27;45361;-84
2022/12/14 00:44:17;;;;;;;;;32.67;27.67;;;;;3.20;60.42;99405.09;5102210;27;45745;-84
2022/12/14 00:46:43;;;;;;;;;30.00;26.50;;;;;3.57;60.44;99472.47;5124390;27;45514;-82
2022/12/14 00:49:09;;;;;;;;;30.67;28.33;;;;;3.70;60.22;99484.25;5127695;27;45405;-83
2022/12/14 00:51:34;;;;;;;;;29.50;25.50;;;;;3.68;60.36;99481.56;5118343;27;45810;-84
2022/12/14 00:54:00;;;;;;;;;28.67;24.00;;;;;3.17;60.22;99403.28;5102734;27;45100;-84
2022/12/14 00:56:25;;;;;;;;;40.33;30.67;;;;;3.06;60.17;99371.69;5125948;27;45256;-84
2022/12/14 00:58:51;;;;;;;;;34.00;29.67;;;;;3.15;60.61;99389.31;5112150;27;45418;-82
2022/12/14 01:01:17;;;;;;;;;25.25;23.75;;;;;3.12;60.80;99380.56;5124316;27;45430;-84
2022/12/14 01:03:42;;;;;;;;;30.75;28.75;;;;;3.16;60.28;99385.06;5120839;27;45897;-84
2022/12/14 01:06:16;;;;;;;;;32.25;27.25;;;;;3.76;60.43;99489.69;5096398;27;47547;-84
2022/12/14 01:08:41;;;;;;;;;27.25;25.00;;;;;3.69;60.67;99493.75;5092782;27;45355;-84
2022/12/14 01:11:07;;;;;;;;;34.75;26.50;;;;;3.34;60.29;99435.13;5105506;27;45855;-84
2022/12/14 01:13:35;;;;;;;;;28.75;24.25;;;;;3.77;60.37;99512.25;5108605;27;45538;-84
2022/12/14 01:16:09;;;;;;;;;26.75;25.75;;;;;3.78;60.46;99527.91;5104539;27;45659;-84
2022/12/14 01:18:36;;;;;;;;;24.75;22.50;;;;;3.35;60.53;99457.69;5093111;27;45654;-84
2022/12/14 01:21:13;;;;;;;;;28.50;25.50;;;;;3.80;60.55;99526.28;5099162;27;45733;-84
2022/12/14 01:23:39;;;;;;;;;27.75;25.50;;;;;3.80;60.42;99531.47;5087472;27;45355;-85
2022/12/14 01:26:04;;;;;;;;;28.25;25.75;;;;;3.69;60.51;99498.06;5105432;27;45307;-84
2022/12/14 01:28:29;;;;;;;;;32.75;27.50;;;;;3.77;60.47;99504.47;5105400;27;48740;-85
2022/12/14 01:30:54;;;;;;;;;30.00;24.33;;;;;3.63;60.22;99483.09;5110532;27;45380;-84
2022/12/14 01:33:20;;;;;;;;;29.33;22.00;;;;;3.56;60.43;99471.56;5101595;27;45548;-84
2022/12/14 01:35:45;;;;;;;;;30.25;27.00;;;;;3.75;60.37;99506.13;5104921;27;45516;-85
2022/12/14 01:38:10;;;;;;;;;26.67;22.33;;;;;3.35;60.55;99422.22;5085728;27;59079;-85
2022/12/14 01:40:36;;;;;;;;;26.00;23.00;;;;;3.57;60.41;99465.56;5111955;27;45658;-85
2022/12/14 01:43:01;;;;;;;;;28.75;25.25;;;;;3.79;60.79;99503.72;5113017;27;45646;-85
2022/12/14 01:45:26;;;;;;;;;32.67;28.67;;;;;3.65;60.51;99478.88;5111973;27;49549;-85
2022/12/14 01:48:00;;;;;;;;;29.25;26.50;;;;;3.85;60.66;99519.56;5114092;27;45895;-85
2022/12/14 01:50:29;;;;;;;;;28.25;25.00;;;;;3.84;60.95;99532.47;5098520;27;45597;-85
2022/12/14 01:53:00;;;;;;;;;25.25;24.00;;;;;3.74;60.70;99527.72;5073522;27;45903;-84
2022/12/14 01:55:32;;;;;;;;;29.50;23.50;;;;;3.76;61.24;99531.28;5073221;27;46978;-85
2022/12/14 01:58:07;;;;;;;;;31.75;27.25;;;;;3.76;61.68;99529.56;5091533;27;45790;-84
2022/12/14 02:00:32;;;;;;;;;29.75;27.00;;;;;2.96;61.63;99387.69;5073658;27;45577;-84
2022/12/14 02:03:13;;;;;;;;;28.00;25.33;;;;;3.78;61.52;99519.22;5104853;27;45653;-85
2022/12/14 02:05:45;;;;;;;;;20.75;19.00;;;;;3.17;61.99;99420.56;5082272;27;48679;-83
2022/12/14 02:08:11;;;;;;;;;28.00;24.00;;;;;3.77;61.97;99548.63;5092145;27;45624;-83
2022/12/14 02:10:37;;;;;;;;;29.75;28.50;;;;;3.54;61.83;99504.38;5102576;27;45467;-84
2022/12/14 02:13:13;;;;;;;;;30.50;24.50;;;;;3.84;62.03;99525.59;5112379;27;45851;-84
2022/12/14 02:15:40;;;;;;;;;33.00;26.00;;;;;3.49;62.14;99472.13;5091910;27;45975;-84
2022/12/14 02:18:12;;;;;;;;;27.00;23.75;;;;;3.87;62.14;99535.19;5091429;27;45752;-84
2022/12/14 02:21:17;;;;;;;;;29.75;25.25;;;;;3.79;62.22;99527.09;5072929;27;45413;-84
2022/12/14 02:24:01;;;;;;;;;30.25;26.25;;;;;3.91;62.43;99526.72;5096932;27;45593;-84
2022/12/14 02:26:29;;;;;;;;;30.00;26.50;;;;;3.91;62.61;99510.25;5113548;27;46351;-83
2022/12/14 02:29:12;;;;;;;;;25.75;22.25;;;;;3.92;62.89;99505.09;5097268;27;45430;-83
2022/12/14 02:32:01;;;;;;;;;34.00;24.25;;;;;3.78;62.78;99462.06;5094287;27;45771;-84
2022/12/14 02:34:47;;;;;;;;;30.50;26.50;;;;;3.95;62.66;99487.03;5102212;27;45451;-82
2022/12/14 02:37:24;;;;;;;;;34.00;28.75;;;;;3.65;62.62;99410.44;5092657;27;45964;-84
2022/12/14 02:40:05;;;;;;;;;30.75;29.25;;;;;3.93;62.67;99460.06;5092523;27;45413;-83
2022/12/14 02:42:48;;;;;;;;;30.75;29.25;;;;;3.89;63.37;99445.19;5091506;27;45468;-84
2022/12/14 02:45:40;;;;;;;;;28.50;24.00;;;;;3.91;63.18;99451.34;5093980;27;45662;-83
2022/12/14 02:48:21;;;;;;;;;35.00;28.50;;;;;3.70;63.35;99408.91;5092574;27;45497;-84
2022/12/14 02:51:00;;;;;;;;;28.00;22.75;;;;;3.90;63.54;99440.91;5095657;27;45664;-83
2022/12/14 02:53:40;;;;;;;;;32.75;26.75;;;;;3.82;63.53;99424.97;5090802;27;45510;-83
2022/12/14 02:56:11;;;;;;;;;31.00;26.50;;;;;3.60;63.71;99376.47;5091721;27;45721;-84
2022/12/14 02:58:49;;;;;;;;;27.50;27.00;;;;;3.70;63.85;99394.22;5091592;27;45561;-83
2022/12/14 03:01:24;;;;;;;;;34.00;29.75;;;;;3.43;63.69;99352.41;5094853;27;45397;-83
2022/12/14 03:03:50;;;;;;;;;33.00;30.75;;;;;3.71;63.84;99421.06;5093885;27;45535;-83
2022/12/14 03:06:25;;;;;;;;;27.00;26.00;;;;;3.74;63.91;99431.56;5093568;27;45746;-83
2022/12/14 03:08:53;;;;;;;;;29.75;27.00;;;;;3.48;63.96;99384.66;5079640;27;47133;-84
2022/12/14 03:11:26;;;;;;;;;29.25;27.75;;;;;3.69;64.14;99425.31;5109207;27;45342;-83
2022/12/14 03:14:02;;;;;;;;;29.00;26.75;;;;;3.58;64.21;99410.16;5088117;27;45256;-83
2022/12/14 03:16:30;;;;;;;;;27.25;25.00;;;;;3.66;64.09;99436.47;5108521;27;45095;-84
2022/12/14 03:19:14;;;;;;;;;36.25;29.75;;;;;3.65;64.26;99433.81;5098728;27;45502;-84
2022/12/14 03:22:01;;;;;;;;;27.75;24.50;;;;;3.48;64.26;99409.75;5098989;27;45453;-84
2022/12/14 03:24:39;;;;;;;;;35.75;33.00;;;;;3.26;64.10;99384.59;5107810;27;45437;-83
2022/12/14 03:27:12;;;;;;;;;29.75;28.25;;;;;3.40;64.73;99406.84;5105607;27;45395;-83
2022/12/14 03:29:44;;;;;;;;;30.50;27.25;;;;;3.34;64.60;99391.88;5109256;27;45274;-84
2022/12/14 03:32:13;;;;;;;;;30.25;27.75;;;;;3.61;64.66;99435.41;5106065;27;45424;-84
2022/12/14 03:34:46;;;;;;;;;30.50;26.50;;;;;3.49;64.91;99412.38;5121579;27;45027;-83
2022/12/14 03:37:19;;;;;;;;;29.00;26.00;;;;;3.61;64.47;99436.28;5105454;27;45365;-83
2022/12/14 03:39:45;;;;;;;;;31.00;26.00;;;;;3.55;64.81;99415.25;5089129;27;46190;-83
2022/12/14 03:42:22;;;;;;;;;18.00;15.25;;;;;3.62;64.85;99425.06;5096036;27;45870;-83
2022/12/14 03:44:59;;;;;;;;;26.25;25.75;;;;;3.62;65.21;99414.66;5090967;27;45397;-84
2022/12/14 03:47:43;;;;;;;;;32.25;26.50;;;;;3.61;65.01;99399.91;5089463;27;45559;-84
2022/12/14 03:50:38;;;;;;;;;31.00;25.75;;;;;3.50;65.32;99380.41;5111769;27;45493;-85
2022/12/14 03:53:06;;;;;;;;;33.50;30.50;;;;;3.65;65.01;99402.66;5080876;27;45579;-85
2022/12/14 03:56:03;;;;;;;;;31.75;28.75;;;;;3.24;65.00;99329.13;5089332;27;45512;-85
2022/12/14 03:58:38;;;;;;;;;34.25;29.25;;;;;3.62;65.28;99393.00;5094857;27;45545;-85
2022/12/14 04:01:24;;;;;;;;;30.75;25.75;;;;;3.61;65.21;99384.31;5095476;27;46412;-85
2022/12/14 04:03:55;;;;;;;;;29.50;25.50;;;;;3.60;65.60;99368.69;5093555;27;45485;-85
2022/12/14 04:06:40;;;;;;;;;36.75;29.75;;;;;3.42;65.47;99331.59;5093759;27;45487;-85
2022/12/14 04:09:25;;;;;;;;;27.25;26.00;;;;;3.63;65.66;99376.59;5099190;27;45350;-84
2022/12/14 04:20:35;;;;;;;;;32.00;29.00;;;;;3.13;65.59;99299.25;5112567;27;45387;-83
2022/12/14 04:23:08;;;;;;;;;30.00;29.25;;;;;3.09;65.72;99303.44;5119894;27;45999;-82
2022/12/14 04:31:22;;;;;;;;;39.00;30.25;;;;;3.02;66.27;99289.31;5114266;27;45499;-83
2022/12/14 04:33:53;;;;;;;;;30.00;26.25;;;;;3.47;66.11;99361.22;5108858;27;46877;-84
2022/12/14 04:36:33;;;;;;;;;34.50;27.75;;;;;3.55;66.14;99386.69;5095220;27;45779;-84
2022/12/14 04:39:04;;;;;;;;;35.75;30.75;;;;;3.48;66.07;99369.06;5093541;27;46095;-84
2022/12/14 04:41:35;;;;;;;;;23.50;21.50;;;;;3.13;66.28;99307.91;5092805;27;45512;-84
2022/12/14 04:44:07;;;;;;;;;31.25;27.25;;;;;3.53;66.36;99364.06;5080156;27;45609;-84
2022/12/14 04:46:36;;;;;;;;;30.25;26.00;;;;;3.29;66.33;99323.28;5118945;27;45716;-82
2022/12/14 04:49:08;;;;;;;;;33.00;26.75;;;;;3.56;66.29;99387.56;5126773;27;45412;-84
2022/12/14 04:51:49;;;;;;;;;26.50;24.50;;;;;3.54;66.03;99394.41;5106638;27;45710;-84
2022/12/14 04:54:27;;;;;;;;;32.00;29.00;;;;;3.53;66.22;99401.31;5109896;27;47472;-84
2022/12/14 04:57:06;;;;;;;;;15.75;15.25;;;;;2.85;66.40;99292.91;5110534;27;45353;-83
2022/12/14 04:59:32;;;;;;;;;32.75;31.75;;;;;3.03;66.54;99308.38;5096217;27;45425;-84
2022/12/14 05:02:39;;;;;;;;;31.50;29.00;;;;;3.52;66.66;99396.06;5093069;27;45479;-84
2022/12/14 05:05:22;;;;;;;;;36.00;30.75;;;;;3.38;66.67;99364.31;5055297;27;45629;-85
2022/12/14 05:08:06;;;;;;;;;31.75;26.00;;;;;3.55;66.75;99385.81;5098451;27;45797;-84
2022/12/14 05:10:43;;;;;;;;;3.00;2.00;;;;;3.55;66.54;99391.88;5097179;27;45636;-84
2022/12/14 05:13:30;;;;;;;;;34.50;31.00;;;;;3.40;66.54;99366.97;5103236;27;45629;-83
2022/12/14 05:15:57;;;;;;;;;29.75;26.50;;;;;2.96;66.47;99296.88;5098997;27;45712;-84
2022/12/14 05:18:23;;;;;;;;;30.75;26.25;;;;;3.46;66.46;99383.72;5101527;27;45911;-83
2022/12/14 05:20:49;;;;;;;;;33.00;27.25;;;;;3.29;66.51;99357.03;5102250;27;44958;-83
2022/12/14 05:23:15;;;;;;;;;27.25;22.25;;;;;3.55;66.58;99397.06;5102965;27;45365;-84
2022/12/14 05:25:40;;;;;;;;;31.50;27.75;;;;;3.32;66.60;99345.91;5098077;27;45340;-84
2022/12/14 05:28:06;;;;;;;;;29.67;27.00;;;;;3.58;66.09;99394.59;5079600;27;49191;-83
2022/12/14 05:30:33;;;;;;;;;27.25;26.75;;;;;3.20;66.52;99333.31;5096181;27;45490;-84
2022/12/14 05:32:58;;;;;;;;;33.25;30.25;;;;;3.55;66.38;99399.69;5093744;27;45360;-83
2022/12/14 05:35:23;;;;;;;;;22.50;20.00;;;;;2.93;66.27;99288.06;5117129;27;46240;-83
2022/12/14 05:37:49;;;;;;;;;27.75;25.25;;;;;3.24;66.43;99342.09;5101381;27;47880;-84
2022/12/14 05:40:15;;;;;;;;;24.50;21.00;;;;;3.49;66.83;99385.53;5098214;27;45339;-83
2022/12/14 05:42:40;;;;;;;;;29.50;24.25;;;;;3.17;66.72;99332.31;5096741;27;45382;-84
2022/12/14 05:45:06;;;;;;;;;36.33;29.33;;;;;3.36;66.95;99363.38;5097127;27;62548;-83
2022/12/14 05:47:32;;;;;;;;;27.75;24.50;;;;;3.44;67.17;99367.16;5094967;27;45463;-83
2022/12/14 05:49:57;;;;;;;;;30.00;26.00;;;;;3.40;66.80;99356.59;5111863;27;44954;-84
2022/12/14 05:52:26;;;;;;;;;30.67;26.00;;;;;3.33;67.35;99350.28;5101645;27;45367;-83
2022/12/14 05:54:52;;;;;;;;;34.00;26.00;;;;;3.47;67.13;99375.09;5094787;27;46389;-84
2022/12/14 05:57:18;;;;;;;;;28.75;26.25;;;;;3.58;67.05;99406.69;5092577;27;45520;-83
2022/12/14 05:59:43;;;;;;;;;21.25;20.50;;;;;3.25;67.22;99351.66;5092459;27;45788;-84
2022/12/14 06:02:08;;;;;;;;;36.00;30.67;;;;;3.67;67.31;99420.06;5093215;27;55029;-82
2022/12/14 06:04:34;;;;;;;;;30.00;27.33;;;;;3.14;67.23;99338.25;5093880;27;46466;-83
2022/12/14 06:07:02;;;;;;;;;26.00;23.25;;;;;3.68;67.22;99446.91;5095324;27;45737;-83
2022/12/14 06:09:28;;;;;;;;;36.00;27.00;;;;;3.45;67.05;99386.22;5114084;27;45458;-84
2022/12/14 06:11:53;;;;;;;;;26.33;23.33;;;;;3.39;67.29;99376.47;5114638;27;45907;-83
2022/12/14 06:14:18;;;;;;;;;29.75;27.50;;;;;3.20;67.23;99342.78;5094632;27;46158;-83
2022/12/14 06:16:45;;;;;;;;;33.75;29.25;;;;;3.74;66.94;99426.38;5112948;27;46227;-83
2022/12/14 06:19:12;;;;;;;;;27.50;23.50;;;;;3.55;67.06;99398.78;5092256;27;45597;-84
2022/12/14 06:21:40;;;;;;;;;35.50;25.25;;;;;3.72;67.03;99423.72;5091518;27;45768;-85
2022/12/14 06:24:06;;;;;;;;;39.25;30.25;;;;;3.69;67.14;99414.91;5094484;27;45405;-85
2022/12/14 06:26:35;;;;;;;;;30.50;28.75;;;;;3.71;67.38;99421.06;5115821;27;46001;-83
2022/12/14 06:29:01;;;;;;;;;37.00;28.75;;;;;3.50;67.38;99384.72;5115874;27;45352;-85
2022/12/14 06:31:28;;;;;;;;;28.50;26.75;;;;;3.61;67.39;99407.72;5119036;27;45486;-84
2022/12/14 06:33:57;;;;;;;;;27.25;22.25;;;;;3.31;67.68;99358.00;5126494;27;45672;-84
2022/12/14 06:36:25;;;;;;;;;31.25;29.00;;;;;3.70;67.99;99429.69;5131295;27;45394;-83
2022/12/14 06:38:51;;;;;;;;;31.25;27.50;;;;;3.72;68.31;99443.63;5129811;27;45506;-84
2022/12/14 06:41:18;;;;;;;;;25.75;23.50;;;;;3.63;68.24;99434.63;5127933;27;45209;-82
2022/12/14 06:43:43;;;;;;;;;27.25;26.00;;;;;3.26;68.42;99359.53;5130216;27;45190;-82
2022/12/14 06:46:11;;;;;;;;;26.25;23.25;;;;;3.58;68.51;99423.16;5110176;27;45656;-82
2022/12/14 06:48:36;;;;;;;;;31.00;28.00;;;;;3.40;68.21;99375.69;5107942;27;45087;-82
2022/12/14 06:51:03;;;;;;;;;30.00;27.00;;;;;3.73;68.84;99422.91;5109952;27;45159;-82
2022/12/14 06:53:29;;;;;;;;;33.00;28.00;;;;;3.26;68.34;99354.34;5096556;27;47427;-83
2022/12/14 06:56:05;;;;;;;;;35.25;31.00;;;;;3.65;68.62;99431.22;5120754;27;45099;-83
2022/12/14 06:58:30;;;;;;;;;24.50;24.25;;;;;3.70;69.00;99440.97;5108214;27;44910;-82
2022/12/14 07:01:06;;;;;;;;;32.33;30.00;;;;;3.66;69.01;99438.19;5090402;27;53811;-83
2022/12/14 07:03:32;;;;;;;;;31.50;29.00;;;;;3.71;69.07;99441.88;5102897;27;45566;-82
2022/12/14 07:05:58;;;;;;;;;30.00;26.75;;;;;3.59;69.20;99427.53;5099607;27;46124;-82
2022/12/14 07:08:24;;;;;;;;;36.25;31.75;;;;;3.62;68.89;99426.78;5102921;27;45544;-82
2022/12/14 07:10:50;;;;;;;;;36.50;32.75;;;;;3.03;69.15;99323.94;5097575;27;45331;-82
2022/12/14 07:13:16;;;;;;;;;29.75;27.00;;;;;3.25;69.37;99369.81;5099619;27;47708;-82
2022/12/14 07:15:41;;;;;;;;;32.50;32.25;;;;;3.10;69.45;99345.03;5117182;27;45068;-81
2022/12/14 07:18:06;;;;;;;;;31.00;30.00;;;;;3.31;68.96;99377.91;5120986;27;45118;-81
2022/12/14 07:20:32;;;;;;;;;38.50;33.00;;;;;3.73;69.45;99461.88;5115077;27;45495;-84
2022/12/14 07:22:57;;;;;;;;;31.00;29.00;;;;;3.43;69.44;99425.13;5115971;27;45030;-83
2022/12/14 07:25:22;;;;;;;;;33.75;31.75;;;;;2.92;69.18;99333.88;5112125;27;44950;-83
2022/12/14 07:27:48;;;;;;;;;31.00;26.00;;;;;3.43;69.47;99430.31;5116114;27;45966;-82
2022/12/14 07:30:13;;;;;;;;;32.75;29.75;;;;;3.20;69.25;99390.44;5125393;27;45301;-83
2022/12/14 07:32:39;;;;;;;;;31.00;29.50;;;;;3.33;69.17;99423.84;5116173;27;45677;-85
2022/12/14 07:35:04;;;;;;;;;34.50;30.25;;;;;3.58;69.38;99476.81;5106972;27;45189;-83
2022/12/14 07:37:30;;;;;;;;;33.50;29.00;;;;;3.55;69.46;99466.31;5117637;27;45180;-84
2022/12/14 07:39:55;;;;;;;;;39.33;34.00;;;;;3.17;69.76;99405.00;5126231;27;45227;-83
2022/12/14 07:42:20;;;;;;;;;33.00;31.25;;;;;3.50;69.52;99458.34;5109713;27;45472;-83
2022/12/14 07:44:46;;;;;;;;;36.67;34.67;;;;;3.24;69.77;99415.69;5108319;27;54514;-86
